createdAt,value
2018-09-13T00:01:57.933Z,44.90
2018-09-13T00:04:27.036Z,44.90
2018-09-13T00:06:55.306Z,44.90
2018-09-13T00:09:23.559Z,44.90
2018-09-13T00:11:52.278Z,44.80
2018-09-13T00:14:20.448Z,44.70
2018-09-13T00:16:48.558Z,44.60
2018-09-13T00:19:16.691Z,44.60
2018-09-13T00:21:44.781Z,44.80
2018-09-13T00:24:12.902Z,44.60
2018-09-13T00:26:41.082Z,44.50
2018-09-13T00:29:09.221Z,44.70
2018-09-13T00:31:37.338Z,44.50
2018-09-13T00:34:05.446Z,44.60
2018-09-13T00:36:33.583Z,44.60
2018-09-13T00:39:01.685Z,44.60
2018-09-13T00:41:29.817Z,44.50
2018-09-13T00:43:57.988Z,44.60
2018-09-13T00:46:26.149Z,44.70
2018-09-13T00:48:54.266Z,44.70
2018-09-13T00:51:22.390Z,44.40
2018-09-13T00:53:50.563Z,44.60
2018-09-13T00:56:18.841Z,44.70
2018-09-13T00:58:46.946Z,44.80
2018-09-13T01:01:15.273Z,44.80
2018-09-13T01:03:43.384Z,44.90
2018-09-13T01:06:11.600Z,45.00
2018-09-13T01:08:39.727Z,44.90
2018-09-13T01:11:07.902Z,45.00
2018-09-13T01:13:36.021Z,45.00
2018-09-13T01:16:04.126Z,45.00
2018-09-13T01:18:32.330Z,45.10
2018-09-13T01:21:00.440Z,45.10
2018-09-13T01:23:28.570Z,45.10
2018-09-13T01:25:56.704Z,45.20
2018-09-13T01:28:24.891Z,45.20
2018-09-13T01:30:52.991Z,45.20
2018-09-13T01:33:21.335Z,45.20
2018-09-13T01:35:49.436Z,45.30
2018-09-13T01:38:17.514Z,45.30
2018-09-13T01:40:45.716Z,45.30
2018-09-13T01:43:13.796Z,45.50
2018-09-13T01:45:41.874Z,45.40
2018-09-13T01:48:10.009Z,45.50
2018-09-13T01:50:38.126Z,45.50
2018-09-13T01:53:06.255Z,45.50
2018-09-13T01:55:34.359Z,45.60
2018-09-13T01:58:02.475Z,45.70
2018-09-13T02:00:30.591Z,45.70
2018-09-13T02:02:58.700Z,45.60
2018-09-13T02:05:26.797Z,45.70
2018-09-13T02:07:54.912Z,45.80
2018-09-13T02:10:23.012Z,45.70
2018-09-13T02:12:51.117Z,45.70
2018-09-13T02:15:19.213Z,45.80
2018-09-13T02:17:47.303Z,45.90
2018-09-13T02:20:15.500Z,45.80
2018-09-13T02:22:43.594Z,46.00
2018-09-13T02:25:11.704Z,45.90
2018-09-13T02:27:39.802Z,46.00
2018-09-13T02:30:07.898Z,46.00
2018-09-13T02:32:35.994Z,46.10
2018-09-13T02:35:04.129Z,46.10
2018-09-13T02:37:32.248Z,46.30
2018-09-13T02:40:00.331Z,46.20
2018-09-13T02:42:28.406Z,46.20
2018-09-13T02:44:56.518Z,46.20
2018-09-13T02:47:24.594Z,46.30
2018-09-13T02:49:52.703Z,46.40
2018-09-13T02:52:20.807Z,46.40
2018-09-13T02:54:48.892Z,46.30
2018-09-13T02:57:17.022Z,46.60
2018-09-13T02:59:45.129Z,46.50
2018-09-13T03:02:13.241Z,46.40
2018-09-13T03:04:41.474Z,46.60
2018-09-13T03:07:09.546Z,46.50
2018-09-13T03:09:37.645Z,46.60
2018-09-13T03:12:05.743Z,46.60
2018-09-13T03:14:33.871Z,46.60
2018-09-13T03:17:01.939Z,46.60
2018-09-13T03:19:30.006Z,46.80
2018-09-13T03:21:58.106Z,46.80
2018-09-13T03:24:26.177Z,46.80
2018-09-13T03:26:54.273Z,46.80
2018-09-13T03:29:22.342Z,46.70
2018-09-13T03:31:50.433Z,46.90
2018-09-13T03:34:18.542Z,46.70
2018-09-13T03:36:47.608Z,46.90
2018-09-13T03:39:15.716Z,46.90
2018-09-13T03:41:43.779Z,46.90
2018-09-13T03:44:11.881Z,47.00
2018-09-13T03:46:39.990Z,46.90
2018-09-13T03:49:08.076Z,46.90
2018-09-13T03:51:36.170Z,46.90
2018-09-13T03:54:04.264Z,47.00
2018-09-13T03:56:32.442Z,47.00
2018-09-13T03:59:00.528Z,47.10
2018-09-13T04:01:28.644Z,46.90
2018-09-13T04:03:56.716Z,47.10
2018-09-13T04:06:24.805Z,47.00
2018-09-13T04:08:52.889Z,47.10
2018-09-13T04:11:20.979Z,47.20
2018-09-13T04:13:49.155Z,47.00
2018-09-13T04:16:17.224Z,47.00
2018-09-13T04:18:45.354Z,47.20
2018-09-13T04:21:13.417Z,47.10
2018-09-13T04:23:41.548Z,47.20
2018-09-13T04:26:09.661Z,47.10
2018-09-13T04:28:37.775Z,47.20
2018-09-13T04:31:05.856Z,47.20
2018-09-13T04:33:34.011Z,47.80
2018-09-13T04:36:02.182Z,47.30
2018-09-13T04:38:30.221Z,47.30
2018-09-13T04:40:58.534Z,47.10
2018-09-13T04:43:26.729Z,47.20
2018-09-13T04:45:55.093Z,47.20
2018-09-13T04:48:23.160Z,47.20
2018-09-13T04:50:51.485Z,47.20
2018-09-13T04:53:19.621Z,47.20
2018-09-13T04:55:47.776Z,47.20
2018-09-13T04:58:18.311Z,47.30
2018-09-13T05:00:46.393Z,47.30
2018-09-13T05:03:14.482Z,47.20
2018-09-13T05:05:42.598Z,46.90
2018-09-13T05:08:10.715Z,46.80
2018-09-13T05:10:38.814Z,46.70
2018-09-13T05:13:06.953Z,46.70
2018-09-13T05:15:35.050Z,46.50
2018-09-13T05:18:03.157Z,46.50
2018-09-13T05:20:31.258Z,46.60
2018-09-13T05:22:59.336Z,46.70
2018-09-13T05:25:27.392Z,46.70
2018-09-13T05:27:55.512Z,46.60
2018-09-13T05:30:23.636Z,46.60
2018-09-13T05:32:51.795Z,46.60
2018-09-13T05:35:19.933Z,46.50
2018-09-13T05:37:48.015Z,46.60
2018-09-13T05:40:16.125Z,46.60
2018-09-13T05:42:44.240Z,46.50
2018-09-13T05:45:12.322Z,46.70
2018-09-13T05:47:40.489Z,46.60
2018-09-13T05:50:08.595Z,46.60
2018-09-13T05:52:36.701Z,46.60
2018-09-13T05:55:04.760Z,46.60
2018-09-13T05:57:32.868Z,46.70
2018-09-13T06:00:02.129Z,46.50
2018-09-13T06:02:30.240Z,46.40
2018-09-13T06:04:58.390Z,46.40
2018-09-13T06:07:26.472Z,46.30
2018-09-13T06:09:54.551Z,46.40
2018-09-13T06:12:22.670Z,46.30
2018-09-13T06:14:50.816Z,46.30
2018-09-13T06:17:18.918Z,46.30
2018-09-13T06:19:47.034Z,46.30
2018-09-13T06:22:15.101Z,46.30
2018-09-13T06:24:43.186Z,46.30
2018-09-13T06:27:11.293Z,46.30
2018-09-13T06:29:39.490Z,46.20
2018-09-13T06:32:07.513Z,46.20
2018-09-13T06:34:35.616Z,46.00
2018-09-13T06:37:03.732Z,46.20
2018-09-13T06:39:31.801Z,46.00
2018-09-13T06:41:59.904Z,46.10
2018-09-13T06:44:27.980Z,46.00
2018-09-13T06:46:56.076Z,46.10
2018-09-13T06:49:24.284Z,46.00
2018-09-13T06:51:52.351Z,46.10
2018-09-13T06:54:20.417Z,45.90
2018-09-13T06:56:48.539Z,46.00
2018-09-13T06:59:16.612Z,46.10
2018-09-13T07:01:44.714Z,46.00
2018-09-13T07:04:12.829Z,46.00
2018-09-13T07:06:40.959Z,46.10
2018-09-13T07:09:11.350Z,46.10
2018-09-13T07:11:39.531Z,46.00
2018-09-13T07:14:07.733Z,45.80
2018-09-13T07:19:18.124Z,46.60
2018-09-13T07:21:46.217Z,46.50
2018-09-13T07:24:14.287Z,46.50
2018-09-13T07:26:42.409Z,46.60
2018-09-13T07:29:10.527Z,46.60
2018-09-13T07:31:38.631Z,46.60
2018-09-13T07:34:07.089Z,46.60
2018-09-13T07:36:35.194Z,46.30
2018-09-13T07:39:04.697Z,46.40
2018-09-13T07:41:32.796Z,46.30
2018-09-13T07:44:00.881Z,46.40
2018-09-13T07:46:28.972Z,46.30
2018-09-13T07:48:57.083Z,46.50
2018-09-13T07:51:25.176Z,47.70
2018-09-13T07:53:53.323Z,47.40
2018-09-13T07:56:21.439Z,47.20
2018-09-13T07:58:49.645Z,47.00
2018-09-13T08:01:17.837Z,46.80
2018-09-13T08:03:45.957Z,46.90
2018-09-13T08:06:14.138Z,46.80
2018-09-13T08:08:42.530Z,46.80
2018-09-13T08:11:10.605Z,46.80
2018-09-13T08:13:38.693Z,46.80
2018-09-13T08:16:06.799Z,46.80
2018-09-13T08:18:37.611Z,46.80
2018-09-13T08:21:05.874Z,46.80
2018-09-13T08:23:33.956Z,46.90
2018-09-13T08:26:03.754Z,46.90
2018-09-13T08:28:31.842Z,47.00
2018-09-13T08:30:59.934Z,47.10
2018-09-13T08:33:28.133Z,47.30
2018-09-13T08:35:56.116Z,47.10
2018-09-13T08:38:24.207Z,47.00
2018-09-13T08:40:52.320Z,47.20
2018-09-13T08:43:20.397Z,47.10
2018-09-13T08:45:48.732Z,47.20
2018-09-13T08:48:18.815Z,47.20
2018-09-13T08:50:47.162Z,47.10
2018-09-13T08:53:15.255Z,47.20
2018-09-13T08:55:43.348Z,47.10
2018-09-13T08:58:11.454Z,47.10
2018-09-13T09:00:40.261Z,47.20
2018-09-13T09:03:10.846Z,47.10
2018-09-13T09:05:38.957Z,47.10
2018-09-13T09:08:07.047Z,47.30
2018-09-13T09:10:36.744Z,47.20
2018-09-13T09:13:04.908Z,47.20
2018-09-13T09:15:33.006Z,47.20
2018-09-13T09:18:01.079Z,47.30
2018-09-13T09:20:29.178Z,47.30
2018-09-13T09:22:57.261Z,47.30
2018-09-13T09:25:25.360Z,47.30
2018-09-13T09:27:53.445Z,47.40
2018-09-13T09:30:21.544Z,47.30
2018-09-13T09:32:50.615Z,47.50
2018-09-13T09:35:18.723Z,47.40
2018-09-13T09:37:46.801Z,47.30
2018-09-13T09:40:14.952Z,47.40
2018-09-13T09:42:43.045Z,47.40
2018-09-13T09:45:11.128Z,47.40
2018-09-13T09:47:39.229Z,47.20
2018-09-13T09:50:07.489Z,47.40
2018-09-13T09:52:35.649Z,47.40
2018-09-13T09:55:03.811Z,47.30
2018-09-13T09:57:31.975Z,47.40
2018-09-13T10:00:00.073Z,47.40
2018-09-13T10:02:28.164Z,47.60
2018-09-13T10:04:56.267Z,47.80
2018-09-13T10:07:24.362Z,47.80
2018-09-13T10:09:52.493Z,47.70
2018-09-13T10:12:20.597Z,47.60
2018-09-13T10:15:06.438Z,47.50
2018-09-13T10:17:52.186Z,47.60
2018-09-13T10:20:37.755Z,47.50
2018-09-13T10:23:23.842Z,47.40
2018-09-13T10:26:09.510Z,47.70
2018-09-13T10:28:54.976Z,47.70
2018-09-13T10:31:40.612Z,47.60
2018-09-13T10:34:26.135Z,47.50
2018-09-13T10:37:11.728Z,47.40
2018-09-13T10:39:57.475Z,47.40
2018-09-13T10:42:43.014Z,47.40
2018-09-13T10:45:28.691Z,47.40
2018-09-13T10:48:14.546Z,47.40
2018-09-13T10:51:00.350Z,47.40
2018-09-13T10:53:34.759Z,47.40
2018-09-13T10:56:03.292Z,47.40
2018-09-13T10:58:31.384Z,47.50
2018-09-13T11:00:59.483Z,47.50
2018-09-13T11:03:27.680Z,47.60
2018-09-13T11:05:56.603Z,47.70
2018-09-13T11:08:26.213Z,47.70
2018-09-13T11:10:54.487Z,47.60
2018-09-13T11:13:53.705Z,47.60
2018-09-13T11:16:22.055Z,47.80
2018-09-13T11:18:50.128Z,47.80
2018-09-13T11:21:18.204Z,47.60
2018-09-13T11:23:46.409Z,47.50
2018-09-13T11:26:14.499Z,47.70
2018-09-13T11:28:42.587Z,47.70
2018-09-13T11:31:10.677Z,47.50
2018-09-13T11:33:39.005Z,47.50
2018-09-13T11:36:07.086Z,47.40
2018-09-13T11:38:35.175Z,47.40
2018-09-13T11:41:03.447Z,47.40
2018-09-13T11:43:31.601Z,47.50
2018-09-13T11:45:59.932Z,47.40
2018-09-13T11:48:28.020Z,47.40
2018-09-13T11:50:56.107Z,47.30
2018-09-13T11:53:24.177Z,47.40
2018-09-13T11:55:53.063Z,47.50
2018-09-13T11:58:21.139Z,47.30
2018-09-13T12:00:49.231Z,47.20
2018-09-13T12:03:17.344Z,47.30
2018-09-13T12:05:45.416Z,47.20
2018-09-13T12:08:15.764Z,47.30
2018-09-13T12:10:44.651Z,47.20
2018-09-13T12:13:12.718Z,47.20
2018-09-13T12:15:40.845Z,47.00
2018-09-13T12:18:08.930Z,47.00
2018-09-13T12:20:37.023Z,47.10
2018-09-13T12:23:05.137Z,46.80
2018-09-13T12:25:33.246Z,46.90
2018-09-13T12:28:01.328Z,46.90
2018-09-13T12:30:29.430Z,46.80
2018-09-13T12:32:57.510Z,46.90
2018-09-13T12:35:25.622Z,46.80
2018-09-13T12:37:54.400Z,46.90
2018-09-13T12:40:22.492Z,46.70
2018-09-13T12:42:50.822Z,46.80
2018-09-13T12:45:18.903Z,46.80
2018-09-13T12:47:47.260Z,46.80
2018-09-13T12:50:15.508Z,46.80
2018-09-13T12:52:43.714Z,46.80
2018-09-13T12:55:12.075Z,46.90
2018-09-13T12:57:40.184Z,46.70
2018-09-13T13:00:08.263Z,46.70
2018-09-13T13:02:36.344Z,46.70
2018-09-13T13:05:04.489Z,46.70
2018-09-13T13:07:32.611Z,46.70
2018-09-13T13:10:00.739Z,46.60
2018-09-13T13:12:28.821Z,46.60
2018-09-13T13:14:56.915Z,46.50
2018-09-13T13:17:25.011Z,46.50
2018-09-13T13:19:53.104Z,46.50
2018-09-13T13:22:21.204Z,46.50
2018-09-13T13:24:49.275Z,46.60
2018-09-13T13:27:17.697Z,46.70
2018-09-13T13:29:45.719Z,46.70
2018-09-13T13:32:14.087Z,46.60
2018-09-13T13:34:42.182Z,46.80
2018-09-13T13:37:10.287Z,47.40
2018-09-13T13:39:38.372Z,46.70
2018-09-13T13:42:06.451Z,47.00
2018-09-13T13:44:34.602Z,46.90
2018-09-13T13:47:02.703Z,46.90
2018-09-13T13:49:30.871Z,46.90
2018-09-13T13:51:58.964Z,46.90
2018-09-13T13:54:27.068Z,46.90
2018-09-13T13:56:55.146Z,46.80
2018-09-13T13:59:23.266Z,46.70
2018-09-13T14:01:51.598Z,46.60
2018-09-13T14:04:19.700Z,46.70
2018-09-13T14:06:47.841Z,46.60
2018-09-13T14:09:15.959Z,46.60
2018-09-13T14:11:44.062Z,46.50
2018-09-13T14:14:12.153Z,46.60
2018-09-13T14:16:40.262Z,46.70
2018-09-13T14:19:08.363Z,46.70
2018-09-13T14:21:36.517Z,46.60
2018-09-13T14:24:04.644Z,46.90
2018-09-13T14:26:32.722Z,46.60
2018-09-13T14:29:00.888Z,46.70
2018-09-13T14:31:28.996Z,46.60
2018-09-13T14:33:57.096Z,46.70
2018-09-13T14:36:25.179Z,46.70
2018-09-13T14:38:53.279Z,46.90
2018-09-13T14:41:21.408Z,46.50
2018-09-13T14:43:49.514Z,46.50
2018-09-13T14:46:17.598Z,46.50
2018-09-13T14:48:45.670Z,46.50
2018-09-13T14:51:13.799Z,46.50
2018-09-13T14:53:42.174Z,46.60
2018-09-13T14:56:10.290Z,46.60
2018-09-13T14:58:38.356Z,46.70
2018-09-13T15:01:06.612Z,46.60
2018-09-13T15:03:34.687Z,46.70
2018-09-13T15:06:02.797Z,46.70
2018-09-13T15:08:30.888Z,46.60
2018-09-13T15:10:59.021Z,46.80
2018-09-13T15:13:27.145Z,46.70
2018-09-13T15:15:55.589Z,46.90
2018-09-13T15:18:23.685Z,46.80
2018-09-13T15:20:51.793Z,46.70
2018-09-13T15:23:19.893Z,46.70
2018-09-13T15:25:48.023Z,46.80
2018-09-13T15:28:16.195Z,46.80
2018-09-13T15:30:44.272Z,46.80
2018-09-13T15:33:12.364Z,46.90
2018-09-13T15:35:40.497Z,46.90
2018-09-13T15:38:08.589Z,46.90
2018-09-13T15:40:36.684Z,47.00
2018-09-13T15:43:04.793Z,47.20
2018-09-13T15:45:32.993Z,47.20
2018-09-13T15:48:01.031Z,47.00
2018-09-13T15:50:29.114Z,47.00
2018-09-13T15:52:57.204Z,47.00
2018-09-13T15:55:25.409Z,47.00
2018-09-13T15:57:54.368Z,47.00
2018-09-13T16:00:22.453Z,47.10
2018-09-13T16:02:50.696Z,47.10
2018-09-13T16:05:18.911Z,47.10
2018-09-13T16:07:47.031Z,47.30
2018-09-13T16:10:15.119Z,47.40
2018-09-13T16:12:43.354Z,47.50
2018-09-13T16:15:11.393Z,47.40
2018-09-13T16:17:39.529Z,47.60
2018-09-13T16:20:07.719Z,47.60
2018-09-13T16:22:35.804Z,47.70
2018-09-13T16:25:03.919Z,47.80
2018-09-13T16:27:32.044Z,47.60
2018-09-13T16:30:00.847Z,47.70
2018-09-13T16:32:29.013Z,47.60
2018-09-13T16:34:58.592Z,47.40
2018-09-13T16:37:44.256Z,47.30
2018-09-13T16:40:30.863Z,47.30
2018-09-13T16:43:15.424Z,47.20
2018-09-13T16:45:44.300Z,47.20
2018-09-13T16:48:12.409Z,47.30
2018-09-13T16:50:40.497Z,47.40
2018-09-13T16:53:08.719Z,47.30
2018-09-13T16:55:36.729Z,47.40
2018-09-13T16:58:04.984Z,47.40
2018-09-13T17:00:33.095Z,47.80
2018-09-13T17:03:01.181Z,48.10
2018-09-13T17:05:29.680Z,47.90
2018-09-13T17:07:57.766Z,47.70
2018-09-13T17:10:25.860Z,48.10
2018-09-13T17:12:54.206Z,48.20
